Time;durP1;ratioP1;P1;durP2;ratioP2;P2;SDS_P1;SDS_P2;PMS_P1;PMS_P2;Temp;Humidity;BMP_temperature;BMP_pressure;BME280_temperature;BME280_humidity;BME280_pressure;Samples;Min_cycle;Max_cycle;Signal;HPM_P1;HPM_P2
2022/10/12 00:01:18;;;;;;;2.70;2.20;;;;;;;5.65;82.54;102467.63;4974433;28;20085;-84
2022/10/12 00:03:44;;;;;;;2.60;2.20;;;;;;;5.65;82.73;102464.19;4974469;28;20050;-84
2022/10/12 00:06:21;;;;;;;3.03;2.28;;;;;;;5.67;82.61;102454.81;4974697;28;20472;-84
2022/10/12 00:08:47;;;;;;;;;;;;;;;5.65;82.84;102462.47;4973878;28;20031;-84
2022/10/12 00:11:18;;;;;;;3.63;2.60;;;;;;;5.65;82.82;102457.34;4972714;28;19918;-85
2022/10/12 00:13:44;;;;;;;4.57;2.63;;;;;;;5.67;82.45;102458.25;4974750;28;20023;-84
2022/10/12 00:16:11;;;;;;;3.80;2.65;;;;;;;5.65;82.68;102456.47;4973529;28;20042;-84
2022/10/12 00:18:37;;;;;;;3.53;2.40;;;;;;;5.62;82.83;102451.22;4974248;28;20328;-84
2022/10/12 00:21:05;;;;;;;3.45;2.33;;;;;;;5.57;82.66;102449.34;4974174;28;20027;-84
2022/10/12 00:23:31;;;;;;;2.50;2.30;;;;;;;5.55;82.85;102451.03;4973892;28;20042;-84
2022/10/12 00:26:04;;;;;;;4.18;2.58;;;;;;;5.53;82.86;102450.09;4974114;28;20102;-84
2022/10/12 00:28:30;;;;;;;2.72;2.20;;;;;;;5.50;82.94;102455.16;4974760;28;20019;-84
2022/10/12 00:30:55;;;;;;;3.60;2.40;;;;;;;5.46;82.36;102455.00;4973536;28;20360;-85
2022/10/12 00:33:20;;;;;;;3.28;2.20;;;;;;;5.44;83.11;102456.66;4974504;28;20034;-84
2022/10/12 00:35:46;;;;;;;3.53;2.20;;;;;;;5.41;83.04;102457.44;4973898;28;20121;-84
2022/10/12 00:38:11;;;;;;;4.00;2.50;;;;;;;5.38;83.06;102454.75;4972951;28;20027;-84
2022/10/12 00:40:36;;;;;;;3.90;2.60;;;;;;;5.37;83.30;102461.63;4974102;28;20169;-84
2022/10/12 00:43:02;;;;;;;4.03;2.42;;;;;;;5.39;83.03;102461.66;4974056;28;20360;-84
2022/10/12 00:45:28;;;;;;;3.45;2.40;;;;;;;5.38;83.36;102453.06;4973567;28;20035;-84
2022/10/12 00:47:58;;;;;;;3.72;2.50;;;;;;;5.37;83.26;102453.91;4973983;28;20059;-84
2022/10/12 00:50:31;;;;;;;3.58;2.50;;;;;;;5.35;83.21;102460.69;4974466;28;20027;-84
2022/10/12 00:53:23;;;;;;;3.05;2.20;;;;;;;5.33;83.37;102454.63;4972362;28;20034;-84
2022/10/12 00:55:56;;;;;;;3.28;2.50;;;;;;;5.33;83.48;102454.63;4971642;28;20508;-84
2022/10/12 00:58:22;;;;;;;2.92;2.38;;;;;;;5.35;83.37;102464.94;4973508;28;20422;-84
2022/10/12 01:00:48;;;;;;;2.50;2.30;;;;;;;5.35;83.59;102459.81;4974024;28;20062;-83
2022/10/12 01:03:17;;;;;;;3.75;2.50;;;;;;;5.35;83.65;102464.94;4973133;28;20066;-84
2022/10/12 01:05:43;;;;;;;2.40;2.13;;;;;;;5.36;83.42;102461.56;4973168;28;20074;-84
2022/10/12 01:08:08;;;;;;;3.25;2.33;;;;;;;5.37;83.43;102455.59;4973606;28;20065;-84
2022/10/12 01:10:33;;;;;;;3.17;2.25;;;;;;;5.39;83.64;102464.25;4973890;28;20034;-84
2022/10/12 01:12:59;;;;;;;3.20;2.40;;;;;;;5.38;83.63;102453.06;4972690;28;20027;-84
2022/10/12 01:15:29;;;;;;;3.25;2.40;;;;;;;5.40;83.57;102451.41;4973843;28;20027;-84
2022/10/12 01:18:11;;;;;;;3.33;2.35;;;;;;;5.40;83.79;102441.09;4973514;28;20031;-84
2022/10/12 01:20:42;;;;;;;2.70;2.35;;;;;;;5.41;83.60;102439.41;4973168;28;20479;-84
2022/10/12 01:23:16;;;;;;;5.00;2.50;;;;;;;5.42;83.68;102438.59;4973368;28;20035;-85
2022/10/12 01:26:00;;;;;;;3.17;2.20;;;;;;;5.42;83.63;102436.03;4974007;28;20027;-85
2022/10/12 01:28:25;;;;;;;4.13;2.40;;;;;;;5.44;83.85;102430.91;4973797;28;20093;-84
2022/10/12 01:30:58;;;;;;;3.33;2.45;;;;;;;5.47;84.04;102420.72;4973068;28;20023;-84
2022/10/12 01:33:33;;;;;;;4.10;2.42;;;;;;;5.46;83.75;102422.41;4972949;28;20050;-84
2022/10/12 01:36:16;;;;;;;3.88;2.40;;;;;;;5.44;83.96;102416.34;4973228;28;20035;-84
2022/10/12 01:38:49;;;;;;;2.20;2.00;;;;;;;5.44;84.12;102413.78;4973746;28;20034;-85
2022/10/12 01:41:25;;;;;;;2.95;2.20;;;;;;;5.44;84.14;102420.59;4972857;28;20038;-84
2022/10/12 01:43:51;;;;;;;3.83;2.28;;;;;;;5.43;84.29;102417.16;4972959;28;20114;-85
2022/10/12 01:46:19;;;;;;;2.50;2.30;;;;;;;5.43;84.10;102413.69;4973738;28;20154;-84
2022/10/12 01:48:48;;;;;;;3.22;2.17;;;;;;;5.43;83.96;102406.88;4973084;28;20050;-84
2022/10/12 01:51:28;;;;;;;5.25;2.40;;;;;;;5.41;84.06;102408.53;4973508;28;20031;-84
2022/10/12 01:54:04;;;;;;;2.60;2.17;;;;;;;5.41;83.90;102409.38;4972941;28;20035;-84
2022/10/12 01:56:41;;;;;;;2.92;2.30;;;;;;;5.41;84.21;102400.78;4973670;28;20113;-84
2022/10/12 01:59:29;;;;;;;2.80;2.10;;;;;;;5.38;84.10;102403.25;4972837;28;20069;-84
2022/10/12 02:02:05;;;;;;;2.75;2.40;;;;;;;5.38;84.21;102405.84;4972092;28;20396;-84
2022/10/12 02:04:38;;;;;;;3.28;2.40;;;;;;;5.37;84.28;102402.41;4974120;28;20026;-84
2022/10/12 02:07:09;;;;;;;3.03;2.42;;;;;;;5.37;84.51;102396.38;4976572;28;20555;-84
2022/10/12 02:09:36;;;;;;;4.85;2.40;;;;;;;5.36;84.45;102394.59;4976087;28;20518;-84
2022/10/12 02:12:12;;;;;;;3.95;2.30;;;;;;;5.34;84.44;102391.16;4976563;28;20031;-83
2022/10/12 02:14:42;;;;;;;2.92;2.47;;;;;;;5.34;84.45;102393.72;4976712;28;20026;-84
2022/10/12 02:17:11;;;;;;;3.58;2.30;;;;;;;5.33;84.51;102392.81;4975847;28;20030;-84
2022/10/12 02:19:47;;;;;;;4.22;2.40;;;;;;;5.33;84.33;102395.41;4977025;28;20075;-84
2022/10/12 02:22:14;;;;;;;3.63;2.30;;;;;;;5.30;84.63;102390.16;4975822;28;20042;-84
2022/10/12 02:24:43;;;;;;;2.67;2.20;;;;;;;5.28;84.45;102388.34;4976429;28;20031;-84
2022/10/12 02:27:11;;;;;;;3.70;2.25;;;;;;;5.27;84.27;102382.34;4975459;28;20038;-83
2022/10/12 02:29:38;;;;;;;2.75;2.30;;;;;;;5.27;84.54;102384.91;4975433;28;20459;-84
2022/10/12 02:32:16;;;;;;;3.40;2.30;;;;;;;5.25;84.47;102386.56;4975343;28;20130;-84
2022/10/12 02:34:46;;;;;;;4.55;2.60;;;;;;;5.23;84.68;102383.06;4976105;28;20031;-84
2022/10/12 02:37:30;;;;;;;3.95;2.42;;;;;;;5.21;84.63;102380.47;4975306;28;20052;-84
2022/10/12 02:40:05;;;;;;;3.25;2.45;;;;;;;5.21;84.64;102385.59;4976150;28;20031;-84
2022/10/12 02:42:36;;;;;;;2.97;2.58;;;;;;;5.20;84.58;102385.53;4976230;28;20037;-84
2022/10/12 02:45:05;;;;;;;3.40;2.40;;;;;;;5.18;84.70;102384.63;4975434;28;20027;-84
2022/10/12 02:47:33;;;;;;;4.22;2.50;;;;;;;5.17;84.64;102382.88;4975973;28;20081;-84
2022/10/12 02:50:00;;;;;;;4.65;2.80;;;;;;;5.15;84.67;102381.97;4975520;28;20027;-84
2022/10/12 02:52:25;;;;;;;3.80;2.50;;;;;;;5.12;84.78;102380.16;4975432;28;20035;-84
2022/10/12 02:54:51;;;;;;;3.55;2.42;;;;;;;5.08;84.77;102379.16;4975927;28;20023;-84
2022/10/12 02:57:16;;;;;;;3.05;2.40;;;;;;;5.05;84.59;102379.09;4974847;28;20130;-84
2022/10/12 02:59:41;;;;;;;4.35;2.40;;;;;;;5.03;84.47;102382.41;4975994;28;20034;-84
2022/10/12 03:02:09;;;;;;;3.92;2.47;;;;;;;5.02;84.84;102372.94;4975291;28;20039;-84
2022/10/12 03:04:35;;;;;;;2.70;2.40;;;;;;;4.97;84.68;102362.50;4975400;28;20105;-84
2022/10/12 03:07:00;;;;;;;2.92;2.40;;;;;;;4.96;84.06;102371.06;4975553;28;20053;-85
2022/10/12 03:09:25;;;;;;;3.13;2.35;;;;;;;4.91;84.84;102363.19;4976111;28;20026;-84
2022/10/12 03:11:50;;;;;;;3.45;2.50;;;;;;;4.90;84.67;102368.28;4975213;28;20390;-84
2022/10/12 03:14:16;;;;;;;4.82;2.58;;;;;;;4.89;84.64;102363.97;4975920;28;20031;-84
2022/10/12 03:16:42;;;;;;;3.45;2.40;;;;;;;4.87;84.75;102366.50;4974665;28;20015;-84
2022/10/12 03:19:08;;;;;;;4.68;2.58;;;;;;;4.88;84.73;102365.69;4974951;28;20039;-84
2022/10/12 03:21:33;;;;;;;3.90;2.80;;;;;;;4.87;84.85;102361.34;4975489;28;20026;-84
2022/10/12 03:23:58;;;;;;;2.80;2.25;;;;;;;4.85;84.66;102356.97;4974947;28;20030;-85
2022/10/12 03:26:24;;;;;;;4.03;2.60;;;;;;;4.83;85.01;102361.22;4974836;28;20047;-84
2022/10/12 03:28:49;;;;;;;3.53;2.50;;;;;;;4.81;85.09;102360.28;4975552;28;20384;-84
2022/10/12 03:31:15;;;;;;;4.40;2.78;;;;;;;4.82;85.04;102356.88;4975270;28;20038;-84
2022/10/12 03:33:40;;;;;;;4.20;2.50;;;;;;;4.82;85.04;102356.88;4974729;28;20027;-84
2022/10/12 03:36:06;;;;;;;3.47;2.42;;;;;;;4.78;84.86;102359.34;4975306;28;20069;-84
2022/10/12 03:38:31;;;;;;;3.03;2.55;;;;;;;4.76;84.43;102361.00;4975575;28;20030;-84
2022/10/12 03:40:57;;;;;;;2.97;2.42;;;;;;;4.74;85.12;102365.19;4973800;28;20379;-84
2022/10/12 03:43:22;;;;;;;4.10;2.45;;;;;;;4.73;85.09;102360.88;4975085;28;20039;-84
2022/10/12 03:45:48;;;;;;;5.13;2.80;;;;;;;4.72;84.84;102354.00;4975160;28;20059;-84
2022/10/12 03:48:13;;;;;;;3.30;2.38;;;;;;;4.69;84.92;102356.47;4974137;28;20030;-84
2022/10/12 03:50:39;;;;;;;4.63;2.60;;;;;;;4.66;84.88;102348.66;4975113;28;20074;-84
2022/10/12 03:53:06;;;;;;;2.80;2.40;;;;;;;4.65;84.83;102352.03;4974415;28;20076;-84
2022/10/12 03:55:32;;;;;;;3.25;2.40;;;;;;;4.59;84.86;102354.41;4974662;28;20031;-84
2022/10/12 03:57:58;;;;;;;2.72;2.25;;;;;;;4.56;85.11;102352.59;4974777;28;20031;-84
2022/10/12 04:00:24;;;;;;;3.95;2.50;;;;;;;4.55;85.16;102356.00;4974776;28;20069;-84
2022/10/12 04:02:49;;;;;;;3.30;2.47;;;;;;;4.52;85.52;102343.03;4973765;28;20112;-84
2022/10/12 04:05:14;;;;;;;4.40;2.55;;;;;;;4.51;85.42;102337.84;4974770;28;20030;-84
2022/10/12 04:07:40;;;;;;;3.05;2.40;;;;;;;4.50;85.30;102347.25;4974200;28;20438;-84
2022/10/12 04:10:06;;;;;;;2.42;2.15;;;;;;;4.47;84.98;102339.44;4974227;28;20042;-84
2022/10/12 04:12:31;;;;;;;2.80;2.30;;;;;;;4.45;84.68;102344.53;4974650;28;20031;-85
2022/10/12 04:14:56;;;;;;;2.58;2.15;;;;;;;4.46;85.16;102346.28;4973466;28;20030;-84
2022/10/12 04:17:21;;;;;;;4.65;2.60;;;;;;;4.45;85.77;102348.78;4974127;28;20047;-84
2022/10/12 04:19:47;;;;;;;3.22;2.30;;;;;;;4.43;85.95;102338.47;4973763;28;20030;-84
2022/10/12 04:22:12;;;;;;;3.17;2.58;;;;;;;4.42;85.48;102341.84;4973623;28;20037;-84
2022/10/12 04:24:37;;;;;;;4.97;2.58;;;;;;;4.44;85.59;102342.78;4974656;28;20026;-84
2022/10/12 04:27:03;;;;;;;4.45;2.50;;;;;;;4.45;85.67;102341.06;4974015;28;20027;-84
2022/10/12 04:29:28;;;;;;;2.75;2.28;;;;;;;4.45;85.36;102341.06;4972843;28;20033;-84
2022/10/12 04:31:53;;;;;;;3.05;2.30;;;;;;;4.44;85.80;102340.22;4974288;28;20061;-84
2022/10/12 04:34:19;;;;;;;2.42;2.17;;;;;;;4.46;85.84;102343.72;4974613;28;20026;-84
2022/10/12 04:36:44;;;;;;;4.07;2.50;;;;;;;4.46;85.33;102342.81;4973394;28;20033;-84
2022/10/12 04:39:09;;;;;;;3.38;2.47;;;;;;;4.46;85.53;102338.56;4974082;28;20035;-84
2022/10/12 04:41:34;;;;;;;5.20;2.55;;;;;;;4.46;85.47;102336.00;4974259;28;20019;-84
2022/10/12 04:44:00;;;;;;;2.78;2.33;;;;;;;4.45;85.55;102341.97;4973165;28;20030;-84
2022/10/12 04:46:25;;;;;;;3.60;2.53;;;;;;;4.45;85.79;102336.81;4973611;28;20031;-84
2022/10/12 04:48:50;;;;;;;4.97;2.65;;;;;;;4.43;86.04;102345.31;4973799;28;20376;-84
2022/10/12 04:51:16;;;;;;;3.78;2.60;;;;;;;4.41;85.50;102350.38;4973306;28;20221;-84
2022/10/12 04:53:41;;;;;;;3.22;2.53;;;;;;;4.40;85.54;102353.75;4974647;28;20022;-84
2022/10/12 04:56:06;;;;;;;3.92;2.30;;;;;;;4.38;85.75;102358.00;4974139;28;20102;-84
2022/10/12 04:58:32;;;;;;;2.75;2.30;;;;;;;4.33;85.62;102351.81;4973094;28;20498;-84
2022/10/12 05:00:57;;;;;;;2.50;2.30;;;;;;;4.32;85.84;102353.53;4973344;28;20035;-84
2022/10/12 05:03:23;;;;;;;2.38;2.17;;;;;;;4.31;85.76;102343.16;4973519;28;20057;-84
2022/10/12 05:05:49;;;;;;;4.33;2.50;;;;;;;4.31;85.86;102350.88;4973701;28;20026;-83
2022/10/12 05:08:14;;;;;;;3.72;2.50;;;;;;;4.31;85.50;102356.91;4973841;28;20138;-84
2022/10/12 05:10:39;;;;;;;3.60;2.30;;;;;;;4.27;85.65;102344.78;4973768;28;20035;-84
2022/10/12 05:13:05;;;;;;;3.63;2.60;;;;;;;4.27;85.79;102346.47;4972730;28;20031;-84
2022/10/12 05:15:31;;;;;;;3.13;2.40;;;;;;;4.26;85.72;102345.59;4973571;28;20128;-85
2022/10/12 05:17:56;;;;;;;2.67;2.45;;;;;;;4.26;85.63;102337.00;4973303;28;20045;-83
2022/10/12 05:20:21;;;;;;;3.47;2.50;;;;;;;4.22;85.41;102328.31;4973836;28;20035;-84
2022/10/12 05:22:47;;;;;;;3.03;2.70;;;;;;;4.20;85.58;102332.53;4973752;28;20038;-84
2022/10/12 05:25:12;;;;;;;4.57;2.80;;;;;;;4.19;86.12;102330.78;4972588;28;20086;-84
2022/10/12 05:27:37;;;;;;;5.05;2.95;;;;;;;4.17;85.42;102319.56;4973634;28;20121;-84
2022/10/12 05:30:04;;;;;;;3.65;2.70;;;;;;;4.17;85.58;102322.13;4973450;28;20023;-83
2022/10/12 05:32:30;;;;;;;;;;;;;;;4.16;85.58;102317.81;4957752;28;20367;-85
2022/10/12 05:35:01;;;;;;;4.80;3.00;;;;;;;4.14;85.56;102322.91;4954734;29;20065;-84
2022/10/12 05:37:29;;;;;;;4.38;2.83;;;;;;;4.08;85.31;102322.69;4954480;29;20074;-84
2022/10/12 05:39:54;;;;;;;5.25;2.90;;;;;;;4.06;85.15;102321.75;4954962;28;20059;-84
2022/10/12 05:42:20;;;;;;;4.05;2.95;;;;;;;4.05;85.64;102324.28;4976583;28;20116;-84
2022/10/12 05:44:48;;;;;;;3.60;2.70;;;;;;;4.00;85.26;102321.53;4977328;28;20027;-84
2022/10/12 05:47:13;;;;;;;5.30;2.90;;;;;;;4.01;85.78;102331.88;4976313;28;20031;-85
2022/10/12 05:49:39;;;;;;;4.07;2.90;;;;;;;3.99;85.37;102325.81;4976988;28;20048;-84
2022/10/12 05:52:04;;;;;;;5.03;3.00;;;;;;;3.99;85.33;102318.13;4977244;28;20035;-84
2022/10/12 05:54:38;;;;;;;4.15;2.60;;;;;;;3.97;85.47;102316.28;4976594;28;20030;-84
2022/10/12 05:57:14;;;;;;;3.65;2.50;;;;;;;3.95;85.50;102317.91;4977017;28;20023;-84
2022/10/12 05:59:48;;;;;;;3.13;2.60;;;;;;;3.95;85.70;102315.34;4977375;28;20038;-85
2022/10/12 06:02:16;;;;;;;3.50;2.60;;;;;;;3.97;85.74;102317.19;4975422;28;20072;-85
2022/10/12 06:04:41;;;;;;;4.78;2.80;;;;;;;4.00;85.90;102322.41;4976573;28;20030;-85
2022/10/12 06:07:07;;;;;;;4.10;2.83;;;;;;;4.02;85.73;102325.03;4974642;28;20066;-83
2022/10/12 06:09:32;;;;;;;3.88;2.80;;;;;;;4.05;85.77;102325.16;4976702;28;20027;-85
2022/10/12 06:11:57;;;;;;;3.42;2.50;;;;;;;4.09;85.95;102326.16;4976533;28;20486;-85
2022/10/12 06:14:23;;;;;;;4.28;2.70;;;;;;;4.08;85.94;102325.25;4976154;28;20019;-84
2022/10/12 06:16:48;;;;;;;3.50;2.60;;;;;;;4.13;85.67;102322.84;4976611;28;20440;-82
2022/10/12 06:19:13;;;;;;;3.53;2.70;;;;;;;4.14;85.89;102317.78;4976634;28;20387;-82
2022/10/12 06:21:39;;;;;;;3.28;2.47;;;;;;;4.17;85.73;102324.72;4976388;28;20419;-81
2022/10/12 06:24:04;;;;;;;3.35;2.33;;;;;;;4.20;86.11;102326.50;4976596;28;20113;-81
2022/10/12 06:26:29;;;;;;;2.60;2.25;;;;;;;4.22;86.21;102324.88;4977226;28;20353;-82
2022/10/12 06:28:55;;;;;;;3.13;2.20;;;;;;;4.22;86.11;102317.16;4975918;28;20023;-81
2022/10/12 06:31:20;;;;;;;2.50;2.30;;;;;;;4.25;86.04;102330.97;4977233;28;20526;-81
2022/10/12 06:33:46;;;;;;;3.60;2.40;;;;;;;4.29;86.08;102325.13;4977241;28;20563;-82
2022/10/12 06:36:11;;;;;;;2.25;2.05;;;;;;;4.31;86.27;102322.59;4975329;28;20102;-81
2022/10/12 06:38:36;;;;;;;2.75;2.33;;;;;;;4.35;86.37;102321.00;4976890;28;20027;-82
2022/10/12 06:41:02;;;;;;;2.40;2.20;;;;;;;4.40;86.27;102316.91;4975769;28;20039;-82
2022/10/12 06:43:27;;;;;;;3.00;2.22;;;;;;;4.44;86.90;102323.94;4975581;28;20093;-82
2022/10/12 06:45:52;;;;;;;2.90;2.10;;;;;;;4.50;86.42;102318.97;4976236;28;20042;-82
2022/10/12 06:48:18;;;;;;;3.17;2.20;;;;;;;4.57;86.77;102320.06;4976557;28;20459;-81
2022/10/12 06:50:45;;;;;;;2.67;2.17;;;;;;;4.67;86.77;102323.81;4974683;28;20026;-81
2022/10/12 06:53:10;;;;;;;3.63;2.42;;;;;;;4.73;87.11;102327.44;4974937;28;20471;-81
2022/10/12 06:55:38;;;;;;;4.32;2.45;;;;;;;4.83;86.95;102320.03;4976144;28;20062;-84
2022/10/12 06:58:03;;;;;;;3.35;2.35;;;;;;;4.90;86.64;102316.84;4975027;28;20045;-84
2022/10/12 07:00:29;;;;;;;3.40;2.45;;;;;;;4.96;86.73;102317.00;4975985;28;20472;-84
2022/10/12 07:02:54;;;;;;;5.85;3.05;;;;;;;5.01;86.74;102315.47;4975504;28;20082;-85
2022/10/12 07:05:20;;;;;;;6.22;3.13;;;;;;;5.07;87.04;102320.81;4974476;28;20506;-80
2022/10/12 07:07:45;;;;;;;6.00;2.95;;;;;;;5.10;86.95;102327.78;4974833;28;20046;-80
2022/10/12 07:10:11;;;;;;;4.32;2.80;;;;;;;5.12;87.39;102325.22;4975713;28;20042;-80
2022/10/12 07:12:37;;;;;;;4.90;2.90;;;;;;;5.13;86.96;102327.84;4975616;28;20031;-80
2022/10/12 07:15:04;;;;;;;3.50;2.70;;;;;;;5.16;87.37;102330.53;4975666;28;20472;-80
2022/10/12 07:17:29;;;;;;;4.40;2.80;;;;;;;5.20;87.75;102319.50;4975258;28;20046;-80
2022/10/12 07:19:54;;;;;;;5.53;3.30;;;;;;;5.19;87.84;102315.19;4975422;28;20051;-80
2022/10/12 07:22:20;;;;;;;7.03;3.40;;;;;;;5.19;87.89;102310.03;4975521;28;20027;-80
2022/10/12 07:24:45;;;;;;;4.50;3.10;;;;;;;5.20;88.51;102311.78;4975015;28;20019;-79
2022/10/12 07:27:11;;;;;;;5.82;3.33;;;;;;;5.20;87.79;102313.47;4975290;28;20027;-80
2022/10/12 07:29:37;;;;;;;5.20;2.92;;;;;;;5.22;89.16;102316.97;4975652;28;20029;-80
2022/10/12 07:32:03;;;;;;;7.03;3.85;;;;;;;5.21;89.21;102299.78;4974049;28;20081;-82
2022/10/12 07:34:29;;;;;;;5.13;3.08;;;;;;;5.21;88.67;102304.91;4974739;28;20030;-83
2022/10/12 07:36:55;;;;;;;5.68;3.17;;;;;;;5.23;88.24;102308.41;4974633;28;20109;-82
2022/10/12 07:39:23;;;;;;;6.03;3.20;;;;;;;5.25;88.92;102304.19;4974555;28;20034;-83
2022/10/12 07:41:50;;;;;;;4.60;2.70;;;;;;;5.30;88.50;102309.47;4974915;28;20030;-82
2022/10/12 07:44:16;;;;;;;8.02;3.45;;;;;;;5.33;89.18;102312.16;4975329;28;20073;-84
2022/10/12 07:46:41;;;;;;;6.35;3.50;;;;;;;5.35;89.63;102313.94;4974403;28;20063;-83
2022/10/12 07:49:07;;;;;;;8.18;3.45;;;;;;;5.37;89.45;102316.56;4974825;28;20026;-82
2022/10/12 07:51:33;;;;;;;6.95;3.67;;;;;;;5.37;89.81;102312.28;4974743;28;20027;-82
2022/10/12 07:53:59;;;;;;;9.73;4.13;;;;;;;5.45;90.85;102316.78;4974175;28;20023;-83
2022/10/12 07:56:25;;;;;;;6.13;3.92;;;;;;;5.49;89.80;102319.50;4974851;28;20411;-83
2022/10/12 07:58:53;;;;;;;9.68;5.00;;;;;;;5.53;92.03;102311.03;4974604;28;20027;-82
2022/10/12 08:01:21;;;;;;;11.10;5.50;;;;;;;5.62;93.19;102319.84;4973985;28;20368;-82
2022/10/12 08:03:46;;;;;;;10.35;5.60;;;;;;;5.73;91.71;102321.03;4974391;28;20041;-83
2022/10/12 08:06:15;;;;;;;10.88;5.20;;;;;;;5.85;91.06;102329.13;4969173;28;20038;-83
2022/10/12 08:08:40;;;;;;;8.55;4.43;;;;;;;5.98;91.55;102325.16;4970743;28;20113;-83
2022/10/12 08:11:07;;;;;;;8.70;4.30;;;;;;;6.08;90.99;102330.63;4965985;28;20055;-83
2022/10/12 08:13:33;;;;;;;8.10;4.03;;;;;;;6.17;89.93;102326.56;4954978;28;20059;-83
2022/10/12 08:15:59;;;;;;;7.97;4.00;;;;;;;6.32;91.84;102328.69;4966188;28;20034;-83
2022/10/12 08:18:25;;;;;;;8.45;4.15;;;;;;;6.43;90.62;102331.56;4955236;28;20090;-83
2022/10/12 08:20:50;;;;;;;12.05;5.20;;;;;;;6.56;92.37;102332.72;4953952;29;20035;-83
2022/10/12 08:23:16;;;;;;;11.45;5.20;;;;;;;6.67;91.55;102324.38;4962959;28;20027;-83
2022/10/12 08:25:42;;;;;;;9.93;5.40;;;;;;;6.79;91.11;102320.41;4955495;28;20023;-83
2022/10/12 08:28:08;;;;;;;10.68;5.13;;;;;;;6.90;91.37;102312.91;4953754;28;20054;-87
2022/10/12 08:30:33;;;;;;;8.80;4.57;;;;;;;7.04;91.24;102309.78;4961137;28;20054;-85
2022/10/12 08:32:59;;;;;;;12.93;6.33;;;;;;;7.20;91.89;102317.06;4973300;28;20097;-85
2022/10/12 08:35:24;;;;;;;12.57;6.23;;;;;;;7.39;92.67;102314.88;4971879;28;20049;-83
2022/10/12 08:37:49;;;;;;;13.23;6.47;;;;;;;7.51;91.36;102307.38;4973040;28;20026;-83
2022/10/12 08:40:44;;;;;;;14.13;6.53;;;;;;;7.68;92.34;102309.44;4973380;28;20506;-83
2022/10/12 08:43:28;;;;;;;15.15;6.78;;;;;;;7.89;91.22;102306.41;4967272;28;20043;-83
2022/10/12 08:45:56;;;;;;;11.75;6.13;;;;;;;8.05;91.14;102299.81;4973826;28;20058;-83
2022/10/12 08:48:27;;;;;;;15.30;7.50;;;;;;;8.21;90.20;102308.72;4974218;28;20026;-83
2022/10/12 08:51:00;;;;;;;14.27;6.78;;;;;;;8.35;90.16;102315.03;4973160;28;20471;-85
2022/10/12 08:53:48;;;;;;;10.80;5.50;;;;;;;8.52;90.07;102317.03;4973937;28;20018;-84
2022/10/12 08:56:18;;;;;;;9.57;4.70;;;;;;;8.67;89.58;102308.66;4973398;28;20023;-85
2022/10/12 08:58:45;;;;;;;14.57;6.68;;;;;;;8.83;88.15;102307.22;4974282;28;20031;-84
2022/10/12 09:01:20;;;;;;;;;;;;;;;8.94;88.21;102305.66;4974129;28;20102;-84
2022/10/12 09:04:08;;;;;;;19.05;9.48;;;;;;;9.12;88.72;102307.63;4973368;28;20367;-84
2022/10/12 09:06:48;;;;;;;18.77;8.27;;;;;;;9.33;88.76;102313.09;4973892;28;20050;-84
2022/10/12 09:09:41;;;;;;;14.23;7.57;;;;;;;9.54;87.72;102310.78;4973844;28;20077;-85
2022/10/12 09:12:24;;;;;;;15.07;7.35;;;;;;;9.74;87.44;102324.00;4972777;28;20476;-85
2022/10/12 09:14:56;;;;;;;17.00;7.72;;;;;;;9.91;86.58;102318.09;4975040;28;20553;-85
2022/10/12 09:17:37;;;;;;;13.38;6.43;;;;;;;10.06;86.67;102330.41;4977419;28;20179;-85
2022/10/12 09:20:15;;;;;;;12.13;5.80;;;;;;;10.12;86.50;102332.19;4977725;28;20027;-85
2022/10/12 09:22:46;;;;;;;10.15;5.60;;;;;;;10.13;85.43;102328.75;4977746;28;20026;-84
2022/10/12 09:25:14;;;;;;;12.38;6.43;;;;;;;10.15;86.04;102335.69;4976939;28;20035;-85
2022/10/12 09:27:40;;;;;;;10.05;5.40;;;;;;;10.22;85.73;102335.72;4978033;28;20109;-84
2022/10/12 09:30:11;;;;;;;14.13;6.53;;;;;;;10.28;85.54;102331.47;4977582;28;20038;-83
2022/10/12 09:32:45;;;;;;;17.15;8.45;;;;;;;10.42;84.03;102326.44;4976778;28;20114;-84
2022/10/12 09:35:12;;;;;;;19.70;10.27;;;;;;;10.60;84.62;102323.13;4977113;28;20023;-85
2022/10/12 09:37:38;;;;;;;18.63;9.82;;;;;;;10.77;83.88;102312.03;4977451;28;20034;-84
2022/10/12 09:40:04;;;;;;;16.65;8.95;;;;;;;10.89;84.36;102322.50;4976346;28;20467;-84
2022/10/12 09:42:32;;;;;;;15.57;8.25;;;;;;;11.00;83.79;102316.53;4977472;28;20035;-85
2022/10/12 09:45:20;;;;;;;14.13;6.88;;;;;;;11.13;84.08;102318.34;4977778;28;20069;-87
2022/10/12 09:48:12;;;;;;;10.60;5.30;;;;;;;11.31;83.64;102321.91;4974505;28;20428;-86
2022/10/12 09:50:45;;;;;;;13.38;6.47;;;;;;;11.42;83.02;102321.09;4976755;28;20388;-86
2022/10/12 09:53:13;;;;;;;13.50;7.07;;;;;;;11.57;82.91;102317.69;4976696;28;20513;-87
2022/10/12 09:55:39;;;;;;;12.73;6.68;;;;;;;11.74;83.10;102312.56;4977371;28;20037;-85
2022/10/12 09:58:11;;;;;;;14.73;7.00;;;;;;;11.88;81.29;102317.81;4977032;28;20031;-85
2022/10/12 10:00:36;;;;;;;15.30;7.13;;;;;;;12.01;80.46;102310.06;4976335;28;20031;-85
2022/10/12 10:03:01;;;;;;;11.77;6.00;;;;;;;12.13;81.24;102311.81;4976713;28;20055;-86
2022/10/12 10:05:33;;;;;;;11.17;5.77;;;;;;;12.28;81.46;102303.16;4977189;28;20023;-85
2022/10/12 10:08:13;;;;;;;10.85;5.95;;;;;;;12.43;78.33;102292.75;4975805;28;20411;-86
2022/10/12 10:10:52;;;;;;;14.05;7.00;;;;;;;12.51;78.50;102292.75;4976656;28;20031;-87
2022/10/12 10:13:18;;;;;;;12.70;6.20;;;;;;;12.64;78.77;102284.06;4976363;28;20035;-85
2022/10/12 10:15:49;;;;;;;8.48;5.18;;;;;;;12.77;77.18;102284.91;4977346;28;20106;-86
2022/10/12 10:18:33;;;;;;;13.05;6.10;;;;;;;12.94;78.37;102284.03;4976832;28;20109;-86
2022/10/12 10:21:00;;;;;;;12.00;6.07;;;;;;;12.99;78.01;102287.47;4975965;28;20503;-86
2022/10/12 10:23:29;;;;;;;11.80;6.60;;;;;;;13.08;74.28;102290.06;4976711;28;20026;-86
2022/10/12 10:26:08;;;;;;;10.93;6.00;;;;;;;13.16;76.42;102289.19;4976391;28;20120;-85
2022/10/12 10:28:35;;;;;;;12.93;5.65;;;;;;;13.23;76.46;102283.06;4976339;28;20061;-85
2022/10/12 10:31:20;;;;;;;12.88;6.57;;;;;;;13.31;69.32;102298.69;4976708;28;20032;-85
2022/10/12 10:34:06;;;;;;;12.65;6.68;;;;;;;13.36;71.05;102294.31;4975848;28;20026;-84
2022/10/12 10:36:36;;;;;;;15.50;6.90;;;;;;;13.37;71.01;102290.84;4971322;28;20046;-84
2022/10/12 10:39:05;;;;;;;15.82;7.45;;;;;;;13.42;73.91;102287.38;4976155;28;20038;-85
2022/10/12 10:41:39;;;;;;;14.30;6.63;;;;;;;13.51;72.98;102294.31;4975795;28;20030;-85
2022/10/12 10:44:15;;;;;;;9.98;5.05;;;;;;;13.62;74.42;102285.56;4975913;28;20034;-85
2022/10/12 10:46:44;;;;;;;9.02;4.47;;;;;;;13.74;73.67;102288.09;4976246;28;20035;-85
2022/10/12 10:49:24;;;;;;;7.75;4.13;;;;;;;13.84;73.30;102284.56;4974721;28;20157;-85
2022/10/12 10:52:17;;;;;;;13.13;6.38;;;;;;;13.90;67.11;102276.69;4975889;28;20114;-86
2022/10/12 10:54:44;;;;;;;9.52;5.00;;;;;;;13.96;73.24;102281.00;4975952;28;20472;-86
2022/10/12 10:57:15;;;;;;;15.13;6.75;;;;;;;14.01;65.99;102278.38;4975100;28;20146;-85
2022/10/12 10:59:47;;;;;;;13.48;6.00;;;;;;;14.02;71.62;102275.75;4975661;28;20467;-86
2022/10/12 11:02:24;;;;;;;9.68;5.07;;;;;;;14.09;71.71;102270.47;4974165;28;20049;-85
2022/10/12 11:05:00;;;;;;;10.98;4.78;;;;;;;14.16;73.23;102270.44;4975289;28;20023;-84
2022/10/12 11:07:29;;;;;;;;;;;;;;;14.18;71.49;102260.84;4976048;28;20387;-84
2022/10/12 11:09:59;;;;;;;13.45;6.43;;;;;;;14.17;65.87;102256.50;4974992;28;20282;-84
2022/10/12 11:12:30;;;;;;;10.75;5.45;;;;;;;14.16;70.67;102253.91;4975832;28;20026;-85
2022/10/12 11:15:14;;;;;;;12.95;5.32;;;;;;;14.20;71.13;102247.78;4975713;28;20027;-85
2022/10/12 11:17:50;;;;;;;11.23;5.05;;;;;;;14.25;63.80;102240.78;4974490;28;20031;-84
2022/10/12 11:20:38;;;;;;;15.85;6.60;;;;;;;14.23;63.63;102246.91;4975788;28;20029;-84
2022/10/12 11:23:21;;;;;;;12.35;5.50;;;;;;;14.18;68.47;102234.75;4975857;28;20035;-86
2022/10/12 11:26:02;;;;;;;7.88;4.25;;;;;;;14.24;69.58;102231.22;4974865;28;20428;-88
2022/10/12 11:28:31;;;;;;;7.97;4.10;;;;;;;14.33;69.85;102230.28;4975549;28;20035;-85
2022/10/12 11:30:57;;;;;;;8.85;4.20;;;;;;;14.38;69.22;102218.03;4974731;28;20529;-86
2022/10/12 11:33:29;;;;;;;9.07;4.05;;;;;;;14.47;69.13;102209.25;4975493;28;20023;-85
2022/10/12 11:35:57;;;;;;;6.95;3.97;;;;;;;14.56;66.65;102203.91;4974505;28;20487;-85
2022/10/12 11:38:59;;;;;;;6.20;3.63;;;;;;;14.61;68.06;102199.53;4974486;28;20041;-84
2022/10/12 11:41:44;;;;;;;7.18;3.47;;;;;;;14.62;68.93;102195.16;4955391;28;20126;-83